sensor_id;sensor_type;location;lat;lon;timestamp;pressure;altitude;pressure_sealevel;temperature;humidity
47716;BME280;33476;50.984;3.538;2023-04-26T00:01:17;102074.94;;;8.35;53.34
47716;BME280;33476;50.984;3.538;2023-04-26T00:03:42;102080.16;;;8.33;53.05
47716;BME280;33476;50.984;3.538;2023-04-26T00:06:08;102080.19;;;8.32;53.49
47716;BME280;33476;50.984;3.538;2023-04-26T00:08:37;102086.38;;;8.25;53.46
47716;BME280;33476;50.984;3.538;2023-04-26T00:11:03;102089.00;;;8.25;53.62
47716;BME280;33476;50.984;3.538;2023-04-26T00:13:28;102081.28;;;8.20;53.30
47716;BME280;33476;50.984;3.538;2023-04-26T00:15:53;102075.22;;;8.18;54.14
47716;BME280;33476;50.984;3.538;2023-04-26T00:18:19;102079.63;;;8.14;53.58
47716;BME280;33476;50.984;3.538;2023-04-26T00:20:44;102081.38;;;8.14;53.60
47716;BME280;33476;50.984;3.538;2023-04-26T00:23:10;102080.50;;;8.15;54.14
47716;BME280;33476;50.984;3.538;2023-04-26T00:25:36;102082.31;;;8.10;53.92
47716;BME280;33476;50.984;3.538;2023-04-26T00:28:02;102077.19;;;8.05;53.83
47716;BME280;33476;50.984;3.538;2023-04-26T00:30:27;102074.63;;;8.02;54.41
47716;BME280;33476;50.984;3.538;2023-04-26T00:32:53;102078.16;;;8.00;53.98
47716;BME280;33476;50.984;3.538;2023-04-26T00:35:18;102080.00;;;7.95;54.64
47716;BME280;33476;50.984;3.538;2023-04-26T00:37:44;102079.22;;;7.88;54.19
47716;BME280;33476;50.984;3.538;2023-04-26T00:40:11;102080.16;;;7.84;54.63
47716;BME280;33476;50.984;3.538;2023-04-26T00:42:37;102085.41;;;7.81;54.71
47716;BME280;33476;50.984;3.538;2023-04-26T00:45:04;102083.66;;;7.81;54.26
47716;BME280;33476;50.984;3.538;2023-04-26T00:47:30;102085.31;;;7.85;54.77
47716;BME280;33476;50.984;3.538;2023-04-26T00:49:55;102084.47;;;7.86;54.27
47716;BME280;33476;50.984;3.538;2023-04-26T00:52:21;102083.63;;;7.83;54.42
47716;BME280;33476;50.984;3.538;2023-04-26T00:54:50;102082.88;;;7.78;54.41
47716;BME280;33476;50.984;3.538;2023-04-26T00:57:15;102087.22;;;7.76;55.04
47716;BME280;33476;50.984;3.538;2023-04-26T00:59:41;102081.97;;;7.79;54.33
47716;BME280;33476;50.984;3.538;2023-04-26T01:02:07;102077.63;;;7.79;54.03
47716;BME280;33476;50.984;3.538;2023-04-26T01:04:32;102074.19;;;7.79;54.10
47716;BME280;33476;50.984;3.538;2023-04-26T01:07:01;102075.09;;;7.75;54.53
47716;BME280;33476;50.984;3.538;2023-04-26T01:09:27;102082.13;;;7.70;54.55
47716;BME280;33476;50.984;3.538;2023-04-26T01:11:54;102073.50;;;7.66;54.59
47716;BME280;33476;50.984;3.538;2023-04-26T01:14:23;102074.38;;;7.67;54.40
47716;BME280;33476;50.984;3.538;2023-04-26T01:16:49;102076.97;;;7.67;54.87
47716;BME280;33476;50.984;3.538;2023-04-26T01:19:16;102077.91;;;7.63;54.84
47716;BME280;33476;50.984;3.538;2023-04-26T01:21:42;102074.50;;;7.57;54.53
47716;BME280;33476;50.984;3.538;2023-04-26T01:24:09;102073.72;;;7.52;54.77
47716;BME280;33476;50.984;3.538;2023-04-26T01:26:35;102074.59;;;7.51;54.82
47716;BME280;33476;50.984;3.538;2023-04-26T01:29:15;102076.44;;;7.45;54.92
47716;BME280;33476;50.984;3.538;2023-04-26T01:31:40;102074.72;;;7.45;55.31
47716;BME280;33476;50.984;3.538;2023-04-26T01:34:06;102083.38;;;7.44;55.68
47716;BME280;33476;50.984;3.538;2023-04-26T01:36:31;102076.44;;;7.45;54.85
47716;BME280;33476;50.984;3.538;2023-04-26T01:38:56;102073.88;;;7.42;55.19
47716;BME280;33476;50.984;3.538;2023-04-26T01:41:22;102067.81;;;7.41;55.22
47716;BME280;33476;50.984;3.538;2023-04-26T01:43:48;102060.94;;;7.39;55.15
47716;BME280;33476;50.984;3.538;2023-04-26T01:46:14;102060.97;;;7.36;55.46
47716;BME280;33476;50.984;3.538;2023-04-26T01:48:39;102059.22;;;7.36;54.92
47716;BME280;33476;50.984;3.538;2023-04-26T01:51:04;102068.75;;;7.37;54.87
47716;BME280;33476;50.984;3.538;2023-04-26T01:53:30;102057.50;;;7.35;55.31
47716;BME280;33476;50.984;3.538;2023-04-26T01:55:55;102057.50;;;7.35;55.17
47716;BME280;33476;50.984;3.538;2023-04-26T01:58:21;102051.50;;;7.31;55.52
47716;BME280;33476;50.984;3.538;2023-04-26T02:00:46;102048.09;;;7.26;55.65
47716;BME280;33476;50.984;3.538;2023-04-26T02:03:12;102039.47;;;7.26;55.62
47716;BME280;33476;50.984;3.538;2023-04-26T02:05:37;102039.47;;;7.24;55.72
47716;BME280;33476;50.984;3.538;2023-04-26T02:08:02;102042.09;;;7.24;55.88
47716;BME280;33476;50.984;3.538;2023-04-26T02:10:28;102039.44;;;7.29;55.78
47716;BME280;33476;50.984;3.538;2023-04-26T02:12:54;102047.19;;;7.30;55.58
47716;BME280;33476;50.984;3.538;2023-04-26T02:15:19;102045.47;;;7.31;55.67
47716;BME280;33476;50.984;3.538;2023-04-26T02:17:45;102046.38;;;7.27;55.66
47716;BME280;33476;50.984;3.538;2023-04-26T02:20:11;102043.81;;;7.24;55.65
47716;BME280;33476;50.984;3.538;2023-04-26T02:22:36;102042.94;;;7.25;55.67
47716;BME280;33476;50.984;3.538;2023-04-26T02:25:02;102041.19;;;7.25;55.85
47716;BME280;33476;50.984;3.538;2023-04-26T02:27:27;102037.81;;;7.22;55.64
47716;BME280;33476;50.984;3.538;2023-04-26T02:29:53;102036.91;;;7.23;55.74
47716;BME280;33476;50.984;3.538;2023-04-26T02:32:18;102038.69;;;7.21;55.55
47716;BME280;33476;50.984;3.538;2023-04-26T02:34:43;102039.53;;;7.21;55.52
47716;BME280;33476;50.984;3.538;2023-04-26T02:37:09;102037.78;;;7.23;55.88
47716;BME280;33476;50.984;3.538;2023-04-26T02:39:34;102035.13;;;7.26;55.90
47716;BME280;33476;50.984;3.538;2023-04-26T02:42:00;102037.75;;;7.25;56.25
47716;BME280;33476;50.984;3.538;2023-04-26T02:44:29;102026.59;;;7.17;55.61
47716;BME280;33476;50.984;3.538;2023-04-26T02:46:55;102025.72;;;7.18;56.07
47716;BME280;33476;50.984;3.538;2023-04-26T02:49:20;102031.78;;;7.17;56.39
47716;BME280;33476;50.984;3.538;2023-04-26T02:51:45;102035.22;;;7.20;55.85
47716;BME280;33476;50.984;3.538;2023-04-26T02:54:11;102030.03;;;7.20;55.90
47716;BME280;33476;50.984;3.538;2023-04-26T02:56:36;102037.81;;;7.22;55.66
47716;BME280;33476;50.984;3.538;2023-04-26T02:59:02;102035.22;;;7.19;55.75
47716;BME280;33476;50.984;3.538;2023-04-26T03:01:27;102038.78;;;7.13;56.04
47716;BME280;33476;50.984;3.538;2023-04-26T03:03:53;102031.88;;;7.11;56.10
47716;BME280;33476;50.984;3.538;2023-04-26T03:06:18;102033.66;;;7.09;55.85
47716;BME280;33476;50.984;3.538;2023-04-26T03:08:44;102040.59;;;7.07;56.40
47716;BME280;33476;50.984;3.538;2023-04-26T03:11:09;102035.41;;;7.07;56.45
47716;BME280;33476;50.984;3.538;2023-04-26T03:13:35;102032.81;;;7.07;56.51
47716;BME280;33476;50.984;3.538;2023-04-26T03:16:01;102027.66;;;7.05;56.31
47716;BME280;33476;50.984;3.538;2023-04-26T03:18:26;102026.78;;;7.04;56.93
47716;BME280;33476;50.984;3.538;2023-04-26T03:20:51;102019.88;;;7.03;56.30
47716;BME280;33476;50.984;3.538;2023-04-26T03:23:17;102024.19;;;7.03;56.71
47716;BME280;33476;50.984;3.538;2023-04-26T03:25:42;102017.28;;;7.02;56.54
47716;BME280;33476;50.984;3.538;2023-04-26T03:28:08;102009.50;;;7.00;56.51
47716;BME280;33476;50.984;3.538;2023-04-26T03:30:33;102006.06;;;7.00;56.91
47716;BME280;33476;50.984;3.538;2023-04-26T03:32:58;102009.50;;;7.00;56.78
47716;BME280;33476;50.984;3.538;2023-04-26T03:35:24;102013.84;;;7.00;57.20
47716;BME280;33476;50.984;3.538;2023-04-26T03:37:50;102014.72;;;6.99;57.08
47716;BME280;33476;50.984;3.538;2023-04-26T03:40:15;102014.69;;;7.02;57.11
47716;BME280;33476;50.984;3.538;2023-04-26T03:42:41;102025.94;;;7.04;57.22
47716;BME280;33476;50.984;3.538;2023-04-26T03:45:07;102027.59;;;7.08;57.04
47716;BME280;33476;50.984;3.538;2023-04-26T03:47:32;102016.31;;;7.09;56.94
47716;BME280;33476;50.984;3.538;2023-04-26T03:49:58;102006.84;;;7.07;56.97
47716;BME280;33476;50.984;3.538;2023-04-26T03:52:23;102007.75;;;7.04;56.95
47716;BME280;33476;50.984;3.538;2023-04-26T03:54:49;102006.03;;;7.01;57.13
47716;BME280;33476;50.984;3.538;2023-04-26T03:57:14;102007.75;;;7.02;57.57
47716;BME280;33476;50.984;3.538;2023-04-26T03:59:40;102008.56;;;7.06;57.28
47716;BME280;33476;50.984;3.538;2023-04-26T04:02:05;102009.44;;;7.07;57.25
47716;BME280;33476;50.984;3.538;2023-04-26T04:04:31;102005.16;;;7.02;56.98
47716;BME280;33476;50.984;3.538;2023-04-26T04:06:57;102011.19;;;7.04;57.33
47716;BME280;33476;50.984;3.538;2023-04-26T04:09:23;102004.28;;;7.03;57.47
47716;BME280;33476;50.984;3.538;2023-04-26T04:11:48;102014.69;;;7.03;57.09
47716;BME280;33476;50.984;3.538;2023-04-26T04:14:13;102003.44;;;7.01;57.53
47716;BME280;33476;50.984;3.538;2023-04-26T04:16:39;102003.41;;;7.03;57.61
47716;BME280;33476;50.984;3.538;2023-04-26T04:19:04;102005.19;;;7.01;57.39
47716;BME280;33476;50.984;3.538;2023-04-26T04:21:29;102007.81;;;6.99;57.27
47716;BME280;33476;50.984;3.538;2023-04-26T04:23:56;102002.56;;;7.01;57.92
47716;BME280;33476;50.984;3.538;2023-04-26T04:26:21;101999.84;;;7.10;57.27
47716;BME280;33476;50.984;3.538;2023-04-26T04:28:46;101999.75;;;7.16;56.95
47716;BME280;33476;50.984;3.538;2023-04-26T04:31:13;102003.25;;;7.15;57.69
47716;BME280;33476;50.984;3.538;2023-04-26T04:33:38;102005.00;;;7.13;57.76
47716;BME280;33476;50.984;3.538;2023-04-26T04:36:04;102004.13;;;7.14;57.44
47716;BME280;33476;50.984;3.538;2023-04-26T04:38:31;102005.81;;;7.17;57.06
47716;BME280;33476;50.984;3.538;2023-04-26T04:40:56;102003.28;;;7.14;57.03
47716;BME280;33476;50.984;3.538;2023-04-26T04:43:22;102002.44;;;7.10;57.54
47716;BME280;33476;50.984;3.538;2023-04-26T04:45:48;102002.44;;;7.12;57.49
47716;BME280;33476;50.984;3.538;2023-04-26T04:48:14;102002.41;;;7.13;57.34
47716;BME280;33476;50.984;3.538;2023-04-26T04:50:39;102011.09;;;7.11;57.39
47716;BME280;33476;50.984;3.538;2023-04-26T04:53:06;102011.97;;;7.10;57.81
47716;BME280;33476;50.984;3.538;2023-04-26T04:55:33;102017.19;;;7.08;57.52
47716;BME280;33476;50.984;3.538;2023-04-26T04:57:58;102017.16;;;7.11;57.66
47716;BME280;33476;50.984;3.538;2023-04-26T05:00:24;102014.53;;;7.14;57.23
47716;BME280;33476;50.984;3.538;2023-04-26T05:02:49;102025.75;;;7.16;57.55
47716;BME280;33476;50.984;3.538;2023-04-26T05:05:15;102022.25;;;7.17;57.51
47716;BME280;33476;50.984;3.538;2023-04-26T05:07:40;102029.16;;;7.18;57.46
47716;BME280;33476;50.984;3.538;2023-04-26T05:10:07;102030.03;;;7.19;57.84
47716;BME280;33476;50.984;3.538;2023-04-26T05:12:32;102039.56;;;7.18;57.27
47716;BME280;33476;50.984;3.538;2023-04-26T05:14:59;102037.81;;;7.19;57.94
47716;BME280;33476;50.984;3.538;2023-04-26T05:17:24;102044.75;;;7.18;57.58
47716;BME280;33476;50.984;3.538;2023-04-26T05:19:50;102037.84;;;7.17;57.86
47716;BME280;33476;50.984;3.538;2023-04-26T05:22:15;102040.41;;;7.19;58.10
47716;BME280;33476;50.984;3.538;2023-04-26T05:24:46;102051.72;;;7.16;57.94
47716;BME280;33476;50.984;3.538;2023-04-26T05:27:12;102055.09;;;7.23;58.12
47716;BME280;33476;50.984;3.538;2023-04-26T05:29:37;102056.78;;;7.25;58.25
47716;BME280;33476;50.984;3.538;2023-04-26T05:32:02;102055.09;;;7.23;57.89
47716;BME280;33476;50.984;3.538;2023-04-26T05:34:28;102059.41;;;7.24;58.20
47716;BME280;33476;50.984;3.538;2023-04-26T05:36:53;102060.25;;;7.26;57.89
47716;BME280;33476;50.984;3.538;2023-04-26T05:39:19;102066.22;;;7.32;58.07
47716;BME280;33476;50.984;3.538;2023-04-26T05:41:45;102067.88;;;7.38;58.10
47716;BME280;33476;50.984;3.538;2023-04-26T05:44:12;102066.91;;;7.44;57.98
47716;BME280;33476;50.984;3.538;2023-04-26T05:46:37;102061.59;;;7.51;58.37
47716;BME280;33476;50.984;3.538;2023-04-26T05:49:03;102060.63;;;7.58;58.42
47716;BME280;33476;50.984;3.538;2023-04-26T05:51:28;102052.75;;;7.63;58.22
47716;BME280;33476;50.984;3.538;2023-04-26T05:53:53;102047.44;;;7.69;58.69
47716;BME280;33476;50.984;3.538;2023-04-26T05:56:19;102045.63;;;7.74;57.98
47716;BME280;33476;50.984;3.538;2023-04-26T05:58:45;102053.34;;;7.80;58.76
47716;BME280;33476;50.984;3.538;2023-04-26T06:01:12;102049.00;;;7.81;58.67
47716;BME280;33476;50.984;3.538;2023-04-26T06:03:38;102051.53;;;7.84;58.45
47716;BME280;33476;50.984;3.538;2023-04-26T06:06:03;102048.94;;;7.84;58.38
47716;BME280;33476;50.984;3.538;2023-04-26T06:08:29;102041.22;;;7.79;58.76
47716;BME280;33476;50.984;3.538;2023-04-26T06:10:54;102036.06;;;7.78;58.51
47716;BME280;33476;50.984;3.538;2023-04-26T06:13:20;102048.13;;;7.82;58.09
47716;BME280;33476;50.984;3.538;2023-04-26T06:15:45;102051.50;;;7.87;58.12
47716;BME280;33476;50.984;3.538;2023-04-26T06:18:11;102055.66;;;7.97;58.31
47716;BME280;33476;50.984;3.538;2023-04-26T06:20:36;102060.66;;;8.08;58.04
47716;BME280;33476;50.984;3.538;2023-04-26T06:23:02;102063.09;;;8.17;57.45
47716;BME280;33476;50.984;3.538;2023-04-26T06:25:27;102055.16;;;8.25;57.88
47716;BME280;33476;50.984;3.538;2023-04-26T06:27:53;102065.38;;;8.34;57.30
47716;BME280;33476;50.984;3.538;2023-04-26T06:30:18;102066.13;;;8.42;57.17
47716;BME280;33476;50.984;3.538;2023-04-26T06:32:44;102062.53;;;8.49;57.70
47716;BME280;33476;50.984;3.538;2023-04-26T06:35:10;102062.44;;;8.55;57.25
47716;BME280;33476;50.984;3.538;2023-04-26T06:37:36;102064.91;;;8.61;56.55
47716;BME280;33476;50.984;3.538;2023-04-26T06:40:01;102064.81;;;8.66;57.13
47716;BME280;33476;50.984;3.538;2023-04-26T06:42:27;102073.31;;;8.74;56.87
47716;BME280;33476;50.984;3.538;2023-04-26T06:44:52;102079.19;;;8.84;56.88
47716;BME280;33476;50.984;3.538;2023-04-26T06:47:18;102070.38;;;8.91;56.56
47716;BME280;33476;50.984;3.538;2023-04-26T06:49:43;102065.06;;;8.95;56.18
47716;BME280;33476;50.984;3.538;2023-04-26T06:52:09;102064.06;;;9.01;56.62
47716;BME280;33476;50.984;3.538;2023-04-26T06:54:34;102066.59;;;9.06;55.75
47716;BME280;33476;50.984;3.538;2023-04-26T06:57:00;102056.09;;;9.09;55.72
47716;BME280;33476;50.984;3.538;2023-04-26T06:59:25;102057.72;;;9.14;55.94
47716;BME280;33476;50.984;3.538;2023-04-26T07:01:51;102064.44;;;9.24;56.11
47716;BME280;33476;50.984;3.538;2023-04-26T07:04:17;102063.41;;;9.32;55.96
47716;BME280;33476;50.984;3.538;2023-04-26T07:06:44;102060.66;;;9.38;55.57
47716;BME280;33476;50.984;3.538;2023-04-26T07:09:10;102061.34;;;9.46;55.87
47716;BME280;33476;50.984;3.538;2023-04-26T07:11:36;102070.69;;;9.54;55.80
47716;BME280;33476;50.984;3.538;2023-04-26T07:14:03;102074.03;;;9.61;55.75
47716;BME280;33476;50.984;3.538;2023-04-26T07:16:28;102074.69;;;9.69;56.10
47716;BME280;33476;50.984;3.538;2023-04-26T07:18:54;102073.72;;;9.73;55.26
47716;BME280;33476;50.984;3.538;2023-04-26T07:21:22;102075.25;;;9.82;55.10
47716;BME280;33476;50.984;3.538;2023-04-26T07:23:52;102076.00;;;9.87;54.69
47716;BME280;33476;50.984;3.538;2023-04-26T07:26:17;102071.38;;;9.97;54.07
47716;BME280;33476;50.984;3.538;2023-04-26T07:28:43;102068.63;;;10.03;54.03
47716;BME280;33476;50.984;3.538;2023-04-26T07:31:08;102068.53;;;10.06;54.08
47716;BME280;33476;50.984;3.538;2023-04-26T07:33:34;102060.59;;;10.10;53.81
47716;BME280;33476;50.984;3.538;2023-04-26T07:35:59;102061.28;;;10.17;53.36
47716;BME280;33476;50.984;3.538;2023-04-26T07:38:26;102062.13;;;10.19;53.41
47716;BME280;33476;50.984;3.538;2023-04-26T07:40:51;102055.94;;;10.23;53.23
47716;BME280;33476;50.984;3.538;2023-04-26T07:43:20;102054.97;;;10.27;52.64
47716;BME280;33476;50.984;3.538;2023-04-26T07:45:45;102063.25;;;10.41;52.53
47716;BME280;33476;50.984;3.538;2023-04-26T07:48:11;102061.31;;;10.50;52.32
47716;BME280;33476;50.984;3.538;2023-04-26T07:50:37;102068.13;;;10.55;52.18
47716;BME280;33476;50.984;3.538;2023-04-26T07:53:02;102055.78;;;10.60;51.28
47716;BME280;33476;50.984;3.538;2023-04-26T07:55:28;102053.88;;;10.65;51.28
47716;BME280;33476;50.984;3.538;2023-04-26T07:57:53;102051.97;;;10.72;51.25
47716;BME280;33476;50.984;3.538;2023-04-26T08:00:19;102058.00;;;10.74;51.30
47716;BME280;33476;50.984;3.538;2023-04-26T08:02:46;102057.94;;;10.77;50.88
47716;BME280;33476;50.984;3.538;2023-04-26T08:05:12;102062.09;;;10.83;50.87
47716;BME280;33476;50.984;3.538;2023-04-26T08:07:38;102056.69;;;10.89;50.73
47716;BME280;33476;50.984;3.538;2023-04-26T08:10:04;102059.09;;;10.96;50.00
47716;BME280;33476;50.984;3.538;2023-04-26T08:12:30;102053.63;;;11.04;49.66
47716;BME280;33476;50.984;3.538;2023-04-26T08:14:58;102062.22;;;11.09;49.55
47716;BME280;33476;50.984;3.538;2023-04-26T08:17:24;102066.28;;;11.18;49.45
47716;BME280;33476;50.984;3.538;2023-04-26T08:19:49;102058.16;;;11.27;49.27
47716;BME280;33476;50.984;3.538;2023-04-26T08:22:14;102064.88;;;11.36;48.72
47716;BME280;33476;50.984;3.538;2023-04-26T08:24:40;102057.53;;;11.47;49.70
47716;BME280;33476;50.984;3.538;2023-04-26T08:27:05;102052.78;;;11.58;49.76
47716;BME280;33476;50.984;3.538;2023-04-26T08:29:31;102049.78;;;11.70;49.25
47716;BME280;33476;50.984;3.538;2023-04-26T08:31:56;102046.53;;;11.90;48.69
47716;BME280;33476;50.984;3.538;2023-04-26T08:34:21;102050.56;;;12.00;48.51
47716;BME280;33476;50.984;3.538;2023-04-26T08:36:47;102040.44;;;12.15;48.45
47716;BME280;33476;50.984;3.538;2023-04-26T08:39:12;102042.81;;;12.22;48.04
47716;BME280;33476;50.984;3.538;2023-04-26T08:41:47;102041.69;;;12.29;47.48
47716;BME280;33476;50.984;3.538;2023-04-26T08:44:14;102045.69;;;12.40;46.63
47716;BME280;33476;50.984;3.538;2023-04-26T08:47:03;102042.25;;;12.37;46.79
47716;BME280;33476;50.984;3.538;2023-04-26T08:49:39;102049.78;;;12.47;46.15
47716;BME280;33476;50.984;3.538;2023-04-26T08:52:08;102042.63;;;12.52;47.16
47716;BME280;33476;50.984;3.538;2023-04-26T08:54:35;102038.75;;;12.62;46.39
47716;BME280;33476;50.984;3.538;2023-04-26T08:57:01;102040.41;;;12.64;45.92
47716;BME280;33476;50.984;3.538;2023-04-26T08:59:29;102042.16;;;12.64;46.01
47716;BME280;33476;50.984;3.538;2023-04-26T09:01:55;102033.66;;;12.81;46.15
47716;BME280;33476;50.984;3.538;2023-04-26T09:04:22;102034.00;;;12.95;45.53
47716;BME280;33476;50.984;3.538;2023-04-26T09:06:49;102026.00;;;12.98;44.86
47716;BME280;33476;50.984;3.538;2023-04-26T09:09:17;102033.22;;;12.93;44.69
47716;BME280;33476;50.984;3.538;2023-04-26T09:11:59;102027.41;;;12.85;44.99
47716;BME280;33476;50.984;3.538;2023-04-26T09:14:25;102033.78;;;13.01;44.77
47716;BME280;33476;50.984;3.538;2023-04-26T09:16:52;102037.69;;;13.13;43.63
47716;BME280;33476;50.984;3.538;2023-04-26T09:19:38;102035.13;;;13.11;43.53
47716;BME280;33476;50.984;3.538;2023-04-26T09:22:04;102038.34;;;13.19;43.94
47716;BME280;33476;50.984;3.538;2023-04-26T09:24:49;102049.94;;;13.12;43.58
47716;BME280;33476;50.984;3.538;2023-04-26T09:27:17;102034.88;;;13.17;43.44
47716;BME280;33476;50.984;3.538;2023-04-26T09:30:08;102036.69;;;13.15;43.16
47716;BME280;33476;50.984;3.538;2023-04-26T09:33:11;102033.22;;;13.15;43.44
47716;BME280;33476;50.984;3.538;2023-04-26T09:35:38;102037.72;;;13.35;42.82
47716;BME280;33476;50.984;3.538;2023-04-26T09:38:11;102027.03;;;13.39;42.16
47716;BME280;33476;50.984;3.538;2023-04-26T09:40:41;102029.56;;;13.42;42.35
47716;BME280;33476;50.984;3.538;2023-04-26T09:48:25;102030.72;;;13.77;41.95
47716;BME280;33476;50.984;3.538;2023-04-26T09:50:54;102022.44;;;13.87;41.61
47716;BME280;33476;50.984;3.538;2023-04-26T09:53:32;102032.69;;;13.93;41.88
47716;BME280;33476;50.984;3.538;2023-04-26T09:56:15;102025.28;;;13.82;40.81
47716;BME280;33476;50.984;3.538;2023-04-26T10:01:18;102030.31;;;13.66;41.49
47716;BME280;33476;50.984;3.538;2023-04-26T10:03:44;102019.50;;;13.74;41.23
47716;BME280;33476;50.984;3.538;2023-04-26T10:06:17;102015.81;;;13.78;41.11
47716;BME280;33476;50.984;3.538;2023-04-26T10:08:43;102011.88;;;13.88;41.51
47716;BME280;33476;50.984;3.538;2023-04-26T10:11:09;102007.47;;;13.89;40.68
47716;BME280;33476;50.984;3.538;2023-04-26T10:13:36;102001.44;;;13.87;40.69
47716;BME280;33476;50.984;3.538;2023-04-26T10:16:02;102003.13;;;13.88;40.59
47716;BME280;33476;50.984;3.538;2023-04-26T10:18:28;101998.72;;;13.88;41.14
47716;BME280;33476;50.984;3.538;2023-04-26T10:20:58;102000.31;;;13.92;40.78
47716;BME280;33476;50.984;3.538;2023-04-26T10:23:24;102003.00;;;14.11;40.90
47716;BME280;33476;50.984;3.538;2023-04-26T10:25:50;102006.66;;;14.27;41.00
47716;BME280;33476;50.984;3.538;2023-04-26T10:31:12;101991.91;;;14.25;40.65
47716;BME280;33476;50.984;3.538;2023-04-26T10:33:37;101996.22;;;14.26;40.33
47716;BME280;33476;50.984;3.538;2023-04-26T10:36:08;101989.91;;;14.30;40.70
47716;BME280;33476;50.984;3.538;2023-04-26T10:38:36;101992.09;;;14.39;40.34
47716;BME280;33476;50.984;3.538;2023-04-26T10:41:37;101987.06;;;14.34;40.26
47716;BME280;33476;50.984;3.538;2023-04-26T10:44:39;101980.63;;;14.42;40.75
47716;BME280;33476;50.984;3.538;2023-04-26T10:47:06;101974.91;;;14.52;40.45
47716;BME280;33476;50.984;3.538;2023-04-26T10:49:45;101973.50;;;14.44;39.91
47716;BME280;33476;50.984;3.538;2023-04-26T10:52:13;101985.28;;;14.35;40.02
47716;BME280;33476;50.984;3.538;2023-04-26T10:54:54;101979.59;;;14.25;40.36
47716;BME280;33476;50.984;3.538;2023-04-26T10:57:20;101969.78;;;14.49;41.13
47716;BME280;33476;50.984;3.538;2023-04-26T11:03:04;101971.47;;;14.69;40.40
47716;BME280;33476;50.984;3.538;2023-04-26T11:05:52;101975.03;;;14.87;40.59
47716;BME280;33476;50.984;3.538;2023-04-26T11:08:28;101974.16;;;14.86;39.40
47716;BME280;33476;50.984;3.538;2023-04-26T11:11:04;101971.13;;;14.77;38.79
47716;BME280;33476;50.984;3.538;2023-04-26T11:13:31;101969.94;;;14.65;38.97
47716;BME280;33476;50.984;3.538;2023-04-26T11:16:07;101974.13;;;14.50;38.65
47716;BME280;33476;50.984;3.538;2023-04-26T11:18:34;101975.97;;;14.48;38.98
47716;BME280;33476;50.984;3.538;2023-04-26T11:21:00;101973.47;;;14.45;39.34
47716;BME280;33476;50.984;3.538;2023-04-26T11:23:28;101963.81;;;14.46;38.72
47716;BME280;33476;50.984;3.538;2023-04-26T11:26:03;101962.84;;;14.48;38.94
47716;BME280;33476;50.984;3.538;2023-04-26T11:28:30;101959.13;;;14.52;38.70
47716;BME280;33476;50.984;3.538;2023-04-26T11:30:56;101959.69;;;14.59;39.11
47716;BME280;33476;50.984;3.538;2023-04-26T11:33:21;101959.47;;;14.64;38.58
47716;BME280;33476;50.984;3.538;2023-04-26T11:35:51;101951.44;;;14.67;38.72
47716;BME280;33476;50.984;3.538;2023-04-26T11:38:20;101950.84;;;14.79;37.94
47716;BME280;33476;50.984;3.538;2023-04-26T11:40:58;101954.66;;;14.73;38.34
47716;BME280;33476;50.984;3.538;2023-04-26T11:43:39;101959.63;;;14.60;37.89
47716;BME280;33476;50.984;3.538;2023-04-26T11:46:06;101955.22;;;14.61;38.80
47716;BME280;33476;50.984;3.538;2023-04-26T11:48:33;101957.06;;;14.59;38.38
47716;BME280;33476;50.984;3.538;2023-04-26T11:51:02;101947.13;;;14.66;38.54
47716;BME280;33476;50.984;3.538;2023-04-26T11:53:39;101955.94;;;14.65;38.84
47716;BME280;33476;50.984;3.538;2023-04-26T11:56:15;101953.06;;;14.69;38.64
47716;BME280;33476;50.984;3.538;2023-04-26T11:58:49;101952.72;;;14.77;38.94
47716;BME280;33476;50.984;3.538;2023-04-26T12:01:22;101958.75;;;14.79;38.54
47716;BME280;33476;50.984;3.538;2023-04-26T12:03:54;101956.41;;;14.73;38.73
47716;BME280;33476;50.984;3.538;2023-04-26T12:06:28;101951.63;;;14.81;38.62
47716;BME280;33476;50.984;3.538;2023-04-26T12:08:57;101946.72;;;14.92;37.75
47716;BME280;33476;50.984;3.538;2023-04-26T12:11:22;101955.19;;;14.99;38.06
47716;BME280;33476;50.984;3.538;2023-04-26T12:13:48;101952.47;;;15.00;37.89
47716;BME280;33476;50.984;3.538;2023-04-26T12:16:13;101951.19;;;15.09;38.16
47716;BME280;33476;50.984;3.538;2023-04-26T12:18:39;101954.81;;;15.06;37.39
47716;BME280;33476;50.984;3.538;2023-04-26T12:21:05;101950.53;;;15.04;37.55
47716;BME280;33476;50.984;3.538;2023-04-26T12:23:38;101953.53;;;14.96;36.78
47716;BME280;33476;50.984;3.538;2023-04-26T12:26:04;101957.94;;;14.96;36.92
47716;BME280;33476;50.984;3.538;2023-04-26T12:28:30;101955.97;;;15.01;37.08
47716;BME280;33476;50.984;3.538;2023-04-26T12:30:55;101957.38;;;15.08;37.19
47716;BME280;33476;50.984;3.538;2023-04-26T12:33:21;101949.16;;;15.14;36.07
47716;BME280;33476;50.984;3.538;2023-04-26T12:35:48;101952.88;;;15.10;35.57
47716;BME280;33476;50.984;3.538;2023-04-26T12:38:13;101943.03;;;15.13;35.98
47716;BME280;33476;50.984;3.538;2023-04-26T12:40:40;101949.25;;;15.30;36.68
47716;BME280;33476;50.984;3.538;2023-04-26T12:43:06;101941.22;;;15.50;36.13
47716;BME280;33476;50.984;3.538;2023-04-26T12:45:31;101944.91;;;15.65;36.13
47716;BME280;33476;50.984;3.538;2023-04-26T12:47:57;101947.34;;;15.68;36.30
47716;BME280;33476;50.984;3.538;2023-04-26T12:50:22;101942.00;;;15.69;35.98
47716;BME280;33476;50.984;3.538;2023-04-26T12:52:48;101934.81;;;15.73;36.77
47716;BME280;33476;50.984;3.538;2023-04-26T12:55:15;101942.47;;;15.78;35.84
47716;BME280;33476;50.984;3.538;2023-04-26T12:57:42;101938.41;;;15.88;35.98
47716;BME280;33476;50.984;3.538;2023-04-26T13:00:12;101931.22;;;15.91;35.44
47716;BME280;33476;50.984;3.538;2023-04-26T13:02:38;101931.25;;;16.07;35.99
47716;BME280;33476;50.984;3.538;2023-04-26T13:05:05;101935.78;;;16.21;35.70
47716;BME280;33476;50.984;3.538;2023-04-26T13:07:32;101928.47;;;16.26;35.45
47716;BME280;33476;50.984;3.538;2023-04-26T13:09:58;101937.31;;;16.25;35.51